Time;durP1;ratioP1;P1;durP2;ratioP2;P2;SDS_P1;SDS_P2;PMS_P1;PMS_P2;Temp;Humidity;BMP_temperature;BMP_pressure;BME280_temperature;BME280_humidity;BME280_pressure;Samples;Min_cycle;Max_cycle;Signal;HPM_P1;HPM_P2
2024/03/19 00:00:12;;;;;;;3.60;3.27;;;;;;;9.69;64.48;95988.34;5133265;27;20305;-86
2024/03/19 00:02:40;;;;;;;5.70;3.63;;;;;;;9.72;64.73;95953.22;5116161;27;20208;-86
2024/03/19 00:05:07;;;;;;;4.87;3.30;;;;;;;9.87;65.07;95974.16;5132968;27;20229;-83
2024/03/19 00:07:34;;;;;;;5.97;3.97;;;;;;;9.93;65.10;95972.19;5133814;27;20194;-82
2024/03/19 00:10:00;;;;;;;5.23;4.07;;;;;;;9.99;64.33;95976.34;5149080;27;20537;-83
2024/03/19 00:12:30;;;;;;;4.63;3.17;;;;;;;9.96;65.41;95977.69;5134245;27;20549;-83
2024/03/19 00:14:59;;;;;;;4.83;3.13;;;;;;;9.92;65.04;95970.63;5133188;27;20203;-83
2024/03/19 00:20:40;;;;;;;5.17;3.33;;;;;;;9.74;65.14;95961.66;5133811;27;20179;-83
2024/03/19 00:23:07;;;;;;;3.90;3.50;;;;;;;9.29;65.37;95916.28;5133094;27;20199;-84
2024/03/19 00:25:35;;;;;;;3.40;3.10;;;;;;;9.29;67.22;95985.31;5133406;27;20229;-84
2024/03/19 00:28:03;;;;;;;3.60;3.30;;;;;;;9.14;68.88;95974.94;5098290;27;20669;-84
2024/03/19 00:30:31;;;;;;;4.40;3.60;;;;;;;9.28;68.72;95979.22;5114830;27;20211;-82
2024/03/19 00:32:59;;;;;;;9.70;3.83;;;;;;;9.29;68.24;95972.84;5132602;27;20203;-84
2024/03/19 00:35:25;;;;;;;3.80;3.47;;;;;;;9.29;68.56;95964.88;5098581;27;20202;-84
2024/03/19 00:37:52;;;;;;;3.60;3.30;;;;;;;9.19;68.59;95965.03;5133453;27;20571;-84
2024/03/19 00:40:20;;;;;;;5.97;3.60;;;;;;;9.24;68.30;95961.50;5114570;27;20198;-84
2024/03/19 00:42:47;;;;;;;4.87;3.07;;;;;;;9.50;67.05;95954.66;5097781;27;20204;-84
2024/03/19 00:45:14;;;;;;;3.67;3.13;;;;;;;9.44;68.02;95961.13;5133232;27;20688;-84
2024/03/19 00:47:43;;;;;;;3.70;3.40;;;;;;;9.42;67.09;95950.03;5132924;27;20198;-83
2024/03/19 00:50:10;;;;;;;5.27;3.47;;;;;;;9.29;67.10;95942.81;5132476;27;20203;-84
2024/03/19 00:52:37;;;;;;;3.50;3.20;;;;;;;9.39;66.60;95933.91;5132832;27;20290;-84
2024/03/19 00:55:05;;;;;;;4.43;3.10;;;;;;;9.44;67.28;95939.88;5133066;27;20555;-84
2024/03/19 00:57:33;;;;;;;4.53;3.80;;;;;;;9.31;67.31;95940.69;5133719;27;20285;-83
2024/03/19 00:59:59;;;;;;;3.90;3.50;;;;;;;9.34;68.34;95940.09;5114517;27;20198;-83
2024/03/19 01:02:27;;;;;;;7.30;3.30;;;;;;;9.41;68.58;95942.34;5097312;28;20245;-84
2024/03/19 01:04:55;;;;;;;5.40;3.73;;;;;;;9.20;69.71;95949.91;5133526;28;20655;-83
2024/03/19 01:07:22;;;;;;;6.93;3.10;;;;;;;9.23;69.74;95944.00;5132560;28;20206;-84
2024/03/19 01:09:49;;;;;;;3.37;3.07;;;;;;;9.32;68.79;95936.94;5132598;28;20202;-84
2024/03/19 01:12:16;;;;;;;3.30;3.00;;;;;;;9.15;69.07;95931.41;5114289;28;20194;-84
2024/03/19 01:14:43;;;;;;;3.73;3.37;;;;;;;9.20;68.24;95928.66;5133072;28;20195;-85
2024/03/19 01:17:12;;;;;;;5.30;3.20;;;;;;;9.17;68.51;95937.22;5133016;28;20260;-87
2024/03/19 01:19:38;;;;;;;3.60;3.20;;;;;;;9.10;68.95;95937.59;5115365;28;20203;-87
2024/03/19 01:22:09;;;;;;;4.63;2.60;;;;;;;9.24;68.27;95934.97;5133140;28;20191;-87
2024/03/19 01:24:37;;;;;;;3.23;2.93;;;;;;;9.23;68.27;95931.53;5132483;28;20275;-84
2024/03/19 01:27:05;;;;;;;3.47;3.17;;;;;;;9.23;67.38;95906.84;5132659;28;20563;-83
2024/03/19 01:29:32;;;;;;;3.83;3.03;;;;;;;9.33;67.00;95896.00;5114413;28;20201;-84
2024/03/19 01:32:00;;;;;;;4.20;3.60;;;;;;;9.21;68.55;95925.69;5113991;28;20210;-84
2024/03/19 01:34:27;;;;;;;5.77;4.33;;;;;;;9.00;68.61;95912.00;5113757;28;20194;-85
2024/03/19 01:36:53;;;;;;;3.87;3.30;;;;;;;9.03;68.22;95916.75;5132752;28;20290;-84
2024/03/19 01:39:22;;;;;;;5.00;3.40;;;;;;;8.98;68.14;95905.41;5132250;28;20202;-84
2024/03/19 01:41:53;;;;;;;4.90;3.10;;;;;;;9.00;67.84;95908.56;5113957;28;20207;-84
2024/03/19 01:44:21;;;;;;;3.67;3.00;;;;;;;9.20;67.47;95910.06;5133794;27;20214;-84
2024/03/19 01:46:49;;;;;;;3.43;3.00;;;;;;;9.28;68.11;95912.03;5136304;27;20695;-83
2024/03/19 01:49:18;;;;;;;3.20;2.90;;;;;;;9.13;68.74;95891.09;5136280;27;20194;-83
2024/03/19 01:51:46;;;;;;;4.70;3.63;;;;;;;9.22;68.81;95911.38;5136052;27;20195;-83
2024/03/19 01:54:13;;;;;;;2.97;2.77;;;;;;;9.46;67.37;95913.84;5134515;27;20198;-83
2024/03/19 01:56:42;;;;;;;3.37;3.00;;;;;;;9.45;67.07;95903.53;5100676;27;20204;-83
2024/03/19 01:59:11;;;;;;;3.40;3.10;;;;;;;9.47;66.37;95899.47;5118134;27;20202;-83
2024/03/19 02:01:38;;;;;;;2.87;2.67;;;;;;;9.37;66.55;95902.34;5135823;27;20231;-83
2024/03/19 02:04:06;;;;;;;3.20;2.83;;;;;;;9.49;66.36;95910.59;5135948;27;20730;-83
2024/03/19 02:06:33;;;;;;;4.00;2.90;;;;;;;9.27;66.77;95918.44;5136338;27;20280;-83
2024/03/19 02:09:05;;;;;;;3.60;3.30;;;;;;;8.65;70.11;95917.91;5136044;27;20202;-82
2024/03/19 02:11:32;;;;;;;3.83;3.53;;;;;;;8.82;70.76;95916.28;5135618;27;20202;-82
2024/03/19 02:14:04;;;;;;;4.13;3.73;;;;;;;8.99;70.09;95917.63;5135478;27;20248;-82
2024/03/19 02:16:31;;;;;;;6.57;4.67;;;;;;;9.24;69.72;95913.72;5136276;27;20195;-83
2024/03/19 02:18:59;;;;;;;7.20;4.23;;;;;;;9.20;69.45;95913.50;5151775;27;20545;-83
2024/03/19 02:21:27;;;;;;;3.60;3.30;;;;;;;8.77;70.57;95910.28;5135406;27;20198;-83
2024/03/19 02:23:56;;;;;;;3.27;2.97;;;;;;;8.38;71.68;95902.69;5151601;27;20195;-83
2024/03/19 02:26:24;;;;;;;4.30;3.83;;;;;;;8.43;72.04;95900.72;5135613;27;20251;-83
2024/03/19 02:28:52;;;;;;;4.10;3.00;;;;;;;8.62;72.25;95906.00;5151154;27;20668;-83
2024/03/19 02:31:19;;;;;;;3.10;2.90;;;;;;;8.65;71.81;95902.00;5135000;27;20884;-83
2024/03/19 02:34:00;;;;;;;2.93;2.53;;;;;;;8.77;71.39;95891.72;5135212;27;20251;-83
2024/03/19 02:36:27;;;;;;;3.00;2.73;;;;;;;8.85;71.54;95906.97;5136933;27;20213;-83
2024/03/19 02:38:55;;;;;;;3.43;3.23;;;;;;;8.89;70.92;95915.13;5135272;27;20735;-83
2024/03/19 02:41:22;;;;;;;4.33;3.10;;;;;;;8.73;71.40;95918.03;5135260;27;20665;-84
2024/03/19 02:43:49;;;;;;;4.20;3.80;;;;;;;8.71;71.08;95920.22;5135347;27;20688;-83
2024/03/19 02:46:16;;;;;;;4.20;3.57;;;;;;;8.75;70.85;95915.06;5134967;27;20226;-83
2024/03/19 02:48:43;;;;;;;4.70;4.07;;;;;;;8.84;70.40;95910.69;5135116;27;20680;-84
2024/03/19 02:51:10;;;;;;;4.33;3.53;;;;;;;8.88;70.27;95917.00;5100033;27;20198;-83
2024/03/19 02:53:37;;;;;;;3.43;3.13;;;;;;;8.93;69.55;95916.91;5116668;27;20565;-84
2024/03/19 02:56:07;;;;;;;5.40;3.07;;;;;;;8.95;69.64;95920.06;5116491;27;20198;-83
2024/03/19 02:58:34;;;;;;;3.83;3.20;;;;;;;8.64;69.65;95913.69;5135007;27;20194;-84
2024/03/19 03:01:01;;;;;;;3.90;3.60;;;;;;;8.69;70.28;95905.66;5116201;27;20739;-84
2024/03/19 03:03:28;;;;;;;3.47;3.17;;;;;;;8.55;70.26;95902.94;5134733;27;20201;-84
2024/03/19 03:05:55;;;;;;;3.47;3.17;;;;;;;8.08;71.17;95852.44;5134837;27;20253;-84
2024/03/19 03:08:22;;;;;;;2.90;2.70;;;;;;;8.13;70.62;95848.13;5116789;27;20388;-83
2024/03/19 03:10:51;;;;;;;3.13;2.70;;;;;;;8.73;70.31;95917.25;5135426;27;20194;-84
2024/03/19 03:13:19;;;;;;;3.53;3.23;;;;;;;8.85;70.57;95919.44;5134420;27;20194;-84
2024/03/19 03:15:46;;;;;;;3.57;3.27;;;;;;;8.74;70.11;95901.03;5134778;27;20198;-83
2024/03/19 03:18:13;;;;;;;3.93;3.53;;;;;;;8.64;70.20;95895.13;5134201;27;20198;-84
2024/03/19 03:20:40;;;;;;;3.60;3.30;;;;;;;8.71;70.88;95920.22;5134436;27;20572;-83
2024/03/19 03:23:07;;;;;;;4.07;2.67;;;;;;;8.78;70.38;95917.16;5134833;27;20209;-83
2024/03/19 03:25:34;;;;;;;3.63;3.33;;;;;;;8.78;70.38;95919.81;5134610;27;20313;-84
2024/03/19 03:28:01;;;;;;;2.77;2.57;;;;;;;8.70;70.89;95909.88;5150761;27;20198;-85
2024/03/19 03:30:29;;;;;;;3.43;3.13;;;;;;;8.68;70.43;95898.78;5134343;27;20198;-86
2024/03/19 03:32:56;;;;;;;3.30;3.00;;;;;;;8.74;70.50;95916.94;5134308;27;20213;-82
2024/03/19 03:35:23;;;;;;;3.03;2.80;;;;;;;8.32;70.30;95857.66;5134911;27;20198;-83
2024/03/19 03:37:50;;;;;;;3.13;2.83;;;;;;;8.31;70.02;95869.31;5133904;27;20218;-82
2024/03/19 03:40:17;;;;;;;2.73;2.50;;;;;;;8.65;70.24;95900.13;5133928;27;20562;-83
2024/03/19 03:43:03;;;;;;;3.03;2.67;;;;;;;8.64;70.15;95906.53;5116716;27;20204;-81
2024/03/19 03:45:31;;;;;;;3.40;3.10;;;;;;;8.56;69.93;95901.88;5133831;27;20309;-84
2024/03/19 03:47:58;;;;;;;3.30;3.00;;;;;;;8.69;69.73;95905.66;5115857;27;20236;-81
2024/03/19 03:50:26;;;;;;;3.07;2.73;;;;;;;8.74;69.71;95911.66;5115671;27;20610;-90
2024/03/19 03:52:53;;;;;;;2.83;2.63;;;;;;;8.67;70.20;95903.25;5098530;27;20199;-85
2024/03/19 03:55:20;;;;;;;3.37;3.07;;;;;;;8.84;69.34;95901.97;5099253;27;20194;-85
2024/03/19 03:57:47;;;;;;;4.43;3.00;;;;;;;8.65;69.96;95909.97;5115732;27;20191;-83
2024/03/19 04:00:17;;;;;;;4.43;4.13;;;;;;;8.24;71.22;95876.06;5133516;27;20697;-83
2024/03/19 04:02:47;;;;;;;4.77;4.33;;;;;;;8.60;70.79;95910.84;5133642;27;20604;-83
2024/03/19 04:05:14;;;;;;;3.77;2.80;;;;;;;8.33;70.66;95914.13;5149578;27;20655;-84
2024/03/19 04:07:43;;;;;;;6.37;3.10;;;;;;;8.06;71.28;95897.00;5114088;27;20254;-83
2024/03/19 04:10:12;;;;;;;3.10;2.80;;;;;;;8.14;71.32;95902.75;5133532;27;20199;-83
2024/03/19 04:12:40;;;;;;;3.07;2.87;;;;;;;7.78;71.39;95858.16;5133333;27;20194;-83
2024/03/19 04:15:09;;;;;;;3.17;2.87;;;;;;;8.13;71.07;95907.25;5134223;27;20198;-83
2024/03/19 04:17:35;;;;;;;7.03;5.40;;;;;;;8.22;71.11;95913.47;5114666;27;20203;-83
2024/03/19 04:20:06;;;;;;;17.63;10.23;;;;;;;8.41;70.65;95910.06;5115124;27;20206;-83
2024/03/19 04:22:33;;;;;;;8.43;5.83;;;;;;;8.48;70.40;95913.13;5133532;27;20252;-83
2024/03/19 04:25:28;;;;;;;33.10;24.03;;;;;;;8.47;70.43;95924.81;5148892;27;20226;-83
2024/03/19 04:27:55;;;;;;;37.07;25.23;;;;;;;8.34;70.51;95895.25;5092388;28;20204;-83
2024/03/19 04:30:23;;;;;;;31.17;21.00;;;;;;;8.53;70.40;95911.19;5092311;28;20204;-82
2024/03/19 04:32:49;;;;;;;14.97;11.27;;;;;;;8.40;70.13;95890.72;5092383;28;20739;-83
2024/03/19 04:35:17;;;;;;;10.83;7.43;;;;;;;8.40;71.00;95903.16;5073948;28;20265;-82
2024/03/19 04:37:44;;;;;;;9.57;6.47;;;;;;;8.29;70.71;95910.47;5092125;28;20203;-81
2024/03/19 04:40:12;;;;;;;5.93;5.03;;;;;;;8.53;70.07;95905.88;5075411;28;20663;-87
2024/03/19 04:42:41;;;;;;;5.77;3.93;;;;;;;8.19;70.87;95889.41;5092706;28;20200;-89
2024/03/19 04:45:10;;;;;;;4.27;3.37;;;;;;;8.45;70.73;95935.72;5075145;28;20243;-85
2024/03/19 04:47:37;;;;;;;4.00;3.67;;;;;;;8.47;70.12;95922.16;5057492;28;20196;-86
2024/03/19 04:50:04;;;;;;;5.17;3.60;;;;;;;8.42;70.79;95940.81;5074019;28;20204;-83
2024/03/19 04:52:33;;;;;;;4.17;3.77;;;;;;;8.05;71.06;95892.78;5092004;28;20219;-84
2024/03/19 04:55:33;;;;;;;3.80;3.43;;;;;;;8.40;70.47;95942.94;5091782;28;20200;-84
2024/03/19 04:58:00;;;;;;;3.70;3.27;;;;;;;8.33;71.27;95945.94;5092953;28;20245;-86
2024/03/19 05:00:27;;;;;;;4.57;3.23;;;;;;;8.39;70.81;95951.97;5057600;28;20726;-86
2024/03/19 05:02:54;;;;;;;3.90;3.50;;;;;;;8.62;70.20;95950.31;5091811;28;20646;-84
2024/03/19 05:05:21;;;;;;;4.13;3.73;;;;;;;8.72;69.69;95952.81;5092981;28;20239;-88
2024/03/19 05:07:49;;;;;;;4.40;4.00;;;;;;;8.45;71.18;95943.66;5074433;28;20212;-83
2024/03/19 05:10:16;;;;;;;65.50;53.77;;;;;;;8.66;70.28;95957.41;5091291;28;20204;-86
2024/03/19 05:12:43;;;;;;;23.13;18.80;;;;;;;8.71;70.90;95956.53;5073664;28;20200;-82
2024/03/19 05:15:11;;;;;;;25.63;21.13;;;;;;;8.67;71.61;95955.53;5074067;28;20672;-86
2024/03/19 05:17:37;;;;;;;33.47;30.50;;;;;;;8.86;70.73;95964.25;5092119;28;20200;-86
2024/03/19 05:20:07;;;;;;;22.23;20.43;;;;;;;8.68;69.44;95941.22;5078290;28;20231;-88
2024/03/19 05:22:34;;;;;;;12.37;11.37;;;;;;;8.48;70.61;95943.09;5079054;28;20204;-88
2024/03/19 05:25:02;;;;;;;6.70;6.10;;;;;;;8.47;71.32;95970.69;5096634;28;20210;-85
2024/03/19 05:27:29;;;;;;;6.20;5.17;;;;;;;8.39;71.04;95939.50;5077979;28;20200;-87
2024/03/19 05:29:56;;;;;;;10.57;8.67;;;;;;;8.42;71.69;95977.94;5077650;28;20204;-83
2024/03/19 05:32:25;;;;;;;16.90;14.80;;;;;;;8.63;71.65;95975.75;5095150;28;20192;-83
2024/03/19 05:34:54;;;;;;;17.33;12.70;;;;;;;8.58;71.72;95973.97;5095278;28;20282;-83
2024/03/19 05:37:20;;;;;;;10.90;9.73;;;;;;;8.66;71.00;95962.72;5094314;28;20208;-83
2024/03/19 05:39:47;;;;;;;11.13;10.03;;;;;;;8.83;70.57;95975.47;5095293;28;20690;-83
2024/03/19 05:42:16;;;;;;;8.70;7.80;;;;;;;8.75;70.88;95968.16;5077575;28;20196;-84
2024/03/19 05:44:43;;;;;;;54.93;37.03;;;;;;;8.72;71.36;95955.47;5095411;28;20207;-84
2024/03/19 05:47:10;;;;;;;30.07;23.33;;;;;;;8.93;71.38;95970.00;5095273;28;20237;-84
2024/03/19 05:49:37;;;;;;;17.17;15.33;;;;;;;8.91;72.66;95966.06;5095722;28;20200;-84
2024/03/19 05:52:06;;;;;;;15.53;14.03;;;;;;;8.84;72.29;95965.66;5095027;28;20207;-85
2024/03/19 05:54:32;;;;;;;10.53;9.53;;;;;;;8.85;72.32;95962.69;5095733;28;20199;-91
2024/03/19 05:56:59;;;;;;;12.87;8.63;;;;;;;8.60;73.83;95958.56;5096243;28;20192;-84
2024/03/19 05:59:27;;;;;;;7.63;6.80;;;;;;;8.24;74.67;95952.94;5095646;28;20261;-83
2024/03/19 06:01:54;;;;;;;8.17;7.37;;;;;;;7.95;74.83;95935.31;5095051;28;20228;-83
2024/03/19 06:04:21;;;;;;;8.90;6.87;;;;;;;8.24;74.99;95979.47;5095492;28;20207;-86
2024/03/19 06:06:48;;;;;;;7.87;6.40;;;;;;;8.48;73.80;95977.59;5095182;28;20597;-88
2024/03/19 06:09:15;;;;;;;10.13;7.40;;;;;;;8.40;73.35;95948.25;5096878;28;20666;-87
2024/03/19 06:11:42;;;;;;;7.30;6.50;;;;;;;8.62;73.03;95947.66;5096186;28;20224;-92
2024/03/19 06:14:09;;;;;;;6.90;4.43;;;;;;;8.48;72.58;95921.06;5104234;28;20199;-92
2024/03/19 06:16:37;;;;;;;7.33;4.90;;;;;;;8.76;72.41;95951.16;5097976;28;20196;-89
2024/03/19 06:19:04;;;;;;;4.37;3.90;;;;;;;9.13;71.34;95984.00;5123145;27;20195;-90
2024/03/19 06:21:31;;;;;;;5.27;3.50;;;;;;;9.24;69.97;95980.88;5119474;27;20198;-92
2024/03/19 06:23:59;;;;;;;7.13;5.63;;;;;;;9.03;69.21;95947.81;5119654;27;20561;-89
2024/03/19 06:26:26;;;;;;;6.57;4.30;;;;;;;9.18;69.50;95974.09;5136195;27;20219;-92
2024/03/19 06:28:53;;;;;;;4.47;4.07;;;;;;;9.37;69.26;95968.72;5125586;27;20197;-86
2024/03/19 06:31:20;;;;;;;4.63;3.60;;;;;;;9.18;68.85;95931.63;5115377;28;20231;-88
2024/03/19 06:33:48;;;;;;;3.83;3.53;;;;;;;9.55;68.30;95985.66;5115229;28;20202;-84
2024/03/19 06:36:15;;;;;;;4.70;3.80;;;;;;;9.62;68.35;95994.03;5115929;28;20196;-87
2024/03/19 06:38:43;;;;;;;5.33;4.13;;;;;;;9.92;67.43;95984.69;5116342;28;20206;-91
2024/03/19 06:41:10;;;;;;;7.53;4.10;;;;;;;9.93;67.38;95986.25;5097263;28;20259;-87
2024/03/19 06:43:36;;;;;;;8.47;5.60;;;;;;;9.99;67.28;95990.41;5114810;27;20614;-83
2024/03/19 06:46:03;;;;;;;4.40;4.00;;;;;;;10.06;66.53;95992.66;5135396;27;20668;-82
2024/03/19 06:48:30;;;;;;;4.10;3.80;;;;;;;10.03;65.89;96001.25;5135996;27;20199;-83
2024/03/19 06:50:59;;;;;;;4.43;4.03;;;;;;;9.97;66.16;95997.09;5135250;27;20653;-83
2024/03/19 06:53:27;;;;;;;5.60;4.73;;;;;;;9.87;66.40;96003.38;5135713;27;20206;-87
2024/03/19 06:55:54;;;;;;;5.87;4.87;;;;;;;9.76;66.54;96004.69;5136004;27;20199;-87
2024/03/19 06:58:21;;;;;;;6.17;4.13;;;;;;;9.85;65.91;96005.56;5136295;27;20206;-88
2024/03/19 07:00:51;;;;;;;6.07;5.43;;;;;;;10.05;65.97;96015.78;5135621;27;20684;-93
2024/03/19 07:03:20;;;;;;;3.80;3.50;;;;;;;9.77;65.26;95942.47;5116660;22;20182;-94
2024/03/19 07:05:49;;;;;;;4.17;3.87;;;;;;;10.24;65.87;96013.03;5038300;28;20209;-90
2024/03/19 07:08:18;;;;;;;5.13;4.37;;;;;;;10.45;65.07;95997.47;5021219;28;20201;-91
2024/03/19 07:10:44;;;;;;;4.90;4.50;;;;;;;10.60;65.76;96006.19;5054607;28;20683;-89
2024/03/19 07:13:11;;;;;;;4.37;3.97;;;;;;;10.69;65.76;96007.84;5021596;28;20263;-96
2024/03/19 07:15:38;;;;;;;4.30;3.90;;;;;;;10.76;64.33;95999.44;5055222;28;20206;-96
2024/03/19 07:18:08;;;;;;;3.63;3.20;;;;;;;11.16;62.74;96008.34;5054820;28;20210;-88
2024/03/19 07:20:35;;;;;;;3.87;3.57;;;;;;;11.24;61.16;95999.63;5054647;28;20210;-92
2024/03/19 07:23:05;;;;;;;4.03;3.53;;;;;;;10.69;62.47;95959.16;5037904;28;20214;-96
2024/03/19 07:25:33;;;;;;;4.03;3.20;;;;;;;10.50;61.40;95946.00;5054709;28;20230;-93
2024/03/19 07:28:00;;;;;;;3.53;3.17;;;;;;;10.93;61.15;96015.56;5054684;28;20218;-94
2024/03/19 07:30:27;;;;;;;4.50;3.57;;;;;;;11.12;60.53;96006.59;5053135;28;20198;-87
2024/03/19 07:32:55;;;;;;;4.73;3.23;;;;;;;10.86;61.80;95993.09;5036343;28;20202;-93
2024/03/19 07:35:22;;;;;;;3.60;3.30;;;;;;;10.91;61.69;96009.72;5053481;28;20206;-88
2024/03/19 07:37:50;;;;;;;3.33;3.00;;;;;;;10.98;59.72;96015.41;5054295;28;20225;-92
2024/03/19 07:40:20;;;;;;;3.43;3.13;;;;;;;10.78;59.95;95970.66;5053015;28;20238;-90
2024/03/19 07:42:49;;;;;;;4.90;4.33;;;;;;;11.34;60.27;96027.88;5034855;28;20229;-95
2024/03/19 07:45:16;;;;;;;5.53;4.40;;;;;;;11.48;59.90;96019.81;5035626;28;20237;-85
2024/03/19 07:47:43;;;;;;;3.57;3.27;;;;;;;11.55;59.41;96014.06;5052854;28;20269;-85
2024/03/19 07:50:17;;;;;;;4.20;3.80;;;;;;;11.78;59.06;96017.47;5052760;28;20580;-85
2024/03/19 07:52:44;;;;;;;4.60;3.80;;;;;;;11.83;58.69;96010.13;5053000;28;20201;-85
2024/03/19 07:55:12;;;;;;;3.43;3.07;;;;;;;11.67;58.29;96007.06;5053126;28;20671;-87
2024/03/19 07:57:39;;;;;;;3.87;3.50;;;;;;;11.92;57.15;96028.84;5034652;28;20201;-95
2024/03/19 08:00:11;;;;;;;4.03;3.20;;;;;;;11.84;57.29;96021.59;5035255;28;20237;-92
2024/03/19 08:02:39;;;;;;;4.77;3.27;;;;;;;11.78;58.30;96020.13;5054350;28;20210;-91
2024/03/19 08:05:06;;;;;;;5.07;4.63;;;;;;;12.10;58.07;96030.47;5053639;28;20229;-95
2024/03/19 08:07:33;;;;;;;8.23;5.23;;;;;;;11.88;55.61;96027.88;5036126;28;20222;-88
2024/03/19 08:10:00;;;;;;;8.77;6.60;;;;;;;11.89;56.22;96024.13;5054152;28;20255;-89
2024/03/19 08:12:27;;;;;;;6.33;4.73;;;;;;;11.72;55.18;96022.91;5052170;28;20260;-92
2024/03/19 08:15:00;;;;;;;10.03;5.97;;;;;;;11.67;54.71;96023.06;5053053;28;20209;-84
2024/03/19 08:17:32;;;;;;;7.17;5.30;;;;;;;11.67;56.59;96016.94;5052922;28;20198;-84
2024/03/19 08:19:59;;;;;;;7.33;6.47;;;;;;;11.51;56.60;96003.22;5052284;28;20202;-84
2024/03/19 08:22:26;;;;;;;3.80;3.43;;;;;;;11.29;56.80;95995.25;5050802;28;20202;-84
2024/03/19 08:24:53;;;;;;;4.90;3.30;;;;;;;11.52;55.86;96026.13;5052110;28;20656;-84
2024/03/19 08:27:20;;;;;;;8.77;7.97;;;;;;;11.44;55.85;96026.84;5053577;28;20283;-95
2024/03/19 08:29:48;;;;;;;9.83;6.93;;;;;;;11.36;58.65;96017.72;5035821;28;20209;-94
2024/03/19 08:32:14;;;;;;;15.50;12.47;;;;;;;11.48;60.45;96028.59;5053773;28;20198;-86
2024/03/19 08:34:46;;;;;;;13.13;10.13;;;;;;;11.43;60.53;96030.63;5035323;28;20229;-92
2024/03/19 08:37:13;;;;;;;10.03;7.83;;;;;;;11.23;60.44;95999.94;5036055;28;20202;-96
2024/03/19 08:39:41;;;;;;;14.60;10.73;;;;;;;11.25;64.07;96030.50;5024722;28;20206;-96
2024/03/19 08:42:08;;;;;;;18.63;12.83;;;;;;;11.00;65.28;96036.44;5062264;28;20227;-91
2024/03/19 08:44:35;;;;;;;12.80;9.60;;;;;;;10.45;66.20;95976.19;5057355;28;20186;-96
2024/03/19 08:47:02;;;;;;;9.20;8.20;;;;;;;10.73;66.44;96032.00;5056375;28;20223;-95
2024/03/19 08:49:30;;;;;;;13.00;8.50;;;;;;;10.50;68.08;96026.63;5055145;28;20230;-96
2024/03/19 08:51:58;;;;;;;14.40;10.43;;;;;;;10.43;70.04;96044.84;5041605;28;20206;-96
2024/03/19 08:54:26;;;;;;;10.47;8.83;;;;;;;10.22;71.90;96055.09;5042979;28;20203;-96
2024/03/19 08:56:53;;;;;;;9.93;8.67;;;;;;;9.64;72.57;95986.56;5055452;28;20209;-94
2024/03/19 08:59:20;;;;;;;14.83;9.40;;;;;;;10.14;72.95;96065.63;5090290;22;20223;-91
2024/03/19 09:01:47;;;;;;;14.80;9.27;;;;;;;9.96;75.04;96054.81;5096253;28;20609;-95
2024/03/19 09:04:14;;;;;;;15.53;12.23;;;;;;;9.72;75.92;96017.00;5095153;28;20204;-96
2024/03/19 09:06:42;;;;;;;14.20;9.40;;;;;;;9.72;76.24;96062.94;5092960;28;20228;-93
2024/03/19 09:09:10;;;;;;;13.83;11.07;;;;;;;9.72;77.45;96044.34;5430440;22;20195;-91
2024/03/19 09:11:37;;;;;;;17.10;11.80;;;;;;;9.24;76.27;95951.69;5165340;23;20223;-92
2024/03/19 09:14:04;;;;;;;29.70;19.43;;;;;;;10.05;77.03;96058.34;5113418;28;20540;-88
2024/03/19 09:16:31;;;;;;;10.07;7.97;;;;;;;9.91;76.16;96030.97;5096560;28;20204;-91
2024/03/19 09:18:58;;;;;;;14.20;8.77;;;;;;;9.96;76.54;96030.88;5097249;28;20189;-95
2024/03/19 09:21:26;;;;;;;10.50;8.20;;;;;;;10.23;76.95;96063.88;5074344;28;20201;-86
2024/03/19 09:23:53;;;;;;;13.07;7.50;;;;;;;9.87;78.04;96063.72;5057503;28;20192;-85
2024/03/19 09:26:21;;;;;;;13.97;8.87;;;;;;;9.97;77.83;96061.69;5093343;28;20196;-93
2024/03/19 09:28:48;;;;;;;17.03;8.57;;;;;;;10.17;77.41;96068.47;5077579;28;20196;-87
2024/03/19 09:31:15;;;;;;;10.43;7.97;;;;;;;9.96;77.85;96048.69;5073761;28;20203;-94
2024/03/19 09:33:43;;;;;;;12.53;10.97;;;;;;;10.28;78.51;96066.44;5075514;28;20197;-84
2024/03/19 09:36:10;;;;;;;14.67;11.83;;;;;;;10.35;77.64;96058.84;5074243;28;20196;-84
2024/03/19 09:38:37;;;;;;;17.10;14.10;;;;;;;10.42;78.71;96063.78;5074237;28;20203;-92
2024/03/19 09:41:06;;;;;;;14.00;11.30;;;;;;;10.32;79.15;96064.78;5058809;28;20227;-90
2024/03/19 09:43:36;;;;;;;14.03;11.13;;;;;;;10.43;79.20;96062.69;5092910;28;20258;-85
2024/03/19 09:46:04;;;;;;;22.43;18.20;;;;;;;10.28;79.58;96067.22;5092737;28;20188;-91
2024/03/19 09:48:32;;;;;;;20.03;17.33;;;;;;;10.27;79.17;96057.69;5091582;28;20223;-84
2024/03/19 09:50:59;;;;;;;17.93;14.63;;;;;;;10.41;79.04;96062.19;5100836;28;20259;-95
2024/03/19 09:53:29;;;;;;;20.40;15.50;;;;;;;10.19;79.06;96018.47;5092354;28;20541;-84
2024/03/19 09:55:56;;;;;;;13.43;11.73;;;;;;;10.22;79.24;96065.75;5090434;28;20205;-82
2024/03/19 09:58:24;;;;;;;21.80;12.83;;;;;;;10.04;80.18;96070.06;5091195;28;20230;-80
2024/03/19 10:00:53;;;;;;;14.00;12.50;;;;;;;10.08;79.84;96069.47;5091937;28;20284;-81
2024/03/19 10:03:20;;;;;;;21.80;19.30;;;;;;;10.07;80.34;96067.88;5091331;28;20681;-81
2024/03/19 10:05:47;;;;;;;15.70;12.43;;;;;;;10.01;80.46;96070.66;5093784;28;20200;-81
2024/03/19 10:08:15;;;;;;;36.97;29.70;;;;;;;9.59;80.51;96020.41;5095080;28;20224;-84
2024/03/19 10:10:47;;;;;;;20.20;18.07;;;;;;;9.97;81.44;96074.19;5095303;28;20666;-83
2024/03/19 10:13:14;;;;;;;41.40;28.90;;;;;;;10.09;81.28;96071.84;5084317;28;20221;-82
2024/03/19 10:15:41;;;;;;;27.43;22.57;;;;;;;10.11;81.56;96076.88;5086218;28;20265;-84
2024/03/19 10:18:10;;;;;;;12.27;9.67;;;;;;;10.08;77.31;96070.25;5094927;28;20196;-81
2024/03/19 10:20:39;;;;;;;13.97;12.50;;;;;;;9.73;72.82;96067.19;5096029;28;20642;-90
2024/03/19 10:23:06;;;;;;;10.57;7.67;;;;;;;9.71;72.60;96071.97;5096169;28;20216;-93
2024/03/19 10:25:36;;;;;;;5.10;4.23;;;;;;;9.83;66.73;96084.78;5095655;28;20749;-86
2024/03/19 10:28:06;;;;;;;9.20;5.70;;;;;;;9.70;70.16;96081.03;5094726;28;20697;-81
2024/03/19 10:30:33;;;;;;;14.13;12.33;;;;;;;9.69;71.47;96073.38;5094827;28;20192;-87
2024/03/19 10:33:07;;;;;;;37.23;27.53;;;;;;;9.68;72.35;96072.59;5095494;28;20550;-84
2024/03/19 10:35:35;;;;;;;36.93;26.60;;;;;;;9.46;73.44;96051.97;5095122;28;20201;-86
2024/03/19 10:38:04;;;;;;;106.30;60.63;;;;;;;9.43;73.08;96033.94;5096122;28;20228;-93
2024/03/19 10:40:33;;;;;;;94.10;44.47;;;;;;;9.63;72.57;96040.00;5095414;28;20269;-80
2024/03/19 10:43:02;;;;;;;116.10;56.77;;;;;;;9.58;73.58;96045.41;5094431;28;20245;-91
2024/03/19 10:45:31;;;;;;;51.70;34.50;;;;;;;9.84;72.84;96064.34;5094982;28;20257;-89
2024/03/19 10:47:58;;;;;;;43.60;24.63;;;;;;;9.86;72.55;96089.53;5094811;28;20248;-90
2024/03/19 10:50:25;;;;;;;32.93;23.63;;;;;;;9.91;73.05;96046.13;5094706;28;20283;-91
2024/03/19 10:53:00;;;;;;;8.43;6.03;;;;;;;10.15;73.17;96032.66;5093176;28;20277;-89
2024/03/19 10:55:27;;;;;;;5.20;4.70;;;;;;;10.42;71.80;96030.00;5093847;28;20204;-84
2024/03/19 10:57:54;;;;;;;10.20;7.17;;;;;;;10.38;67.41;96046.84;5094180;28;20208;-84
2024/03/19 11:00:27;;;;;;;4.97;3.73;;;;;;;10.30;68.68;96027.06;5076075;28;20253;-84
2024/03/19 11:02:56;;;;;;;3.73;3.03;;;;;;;10.44;69.70;96053.63;5076587;28;20200;-90
2024/03/19 11:05:23;;;;;;;4.20;3.73;;;;;;;9.93;63.11;95972.97;5095592;28;20204;-92
2024/03/19 11:07:51;;;;;;;5.23;4.30;;;;;;;10.27;63.55;96052.38;5094861;28;20216;-84
2024/03/19 11:10:27;;;;;;;3.00;2.47;;;;;;;10.08;62.87;96053.53;5077130;28;20196;-84
2024/03/19 11:13:06;;;;;;;7.03;2.93;;;;;;;10.11;64.01;96016.50;5094840;28;20224;-90
2024/03/19 11:15:33;;;;;;;3.73;3.33;;;;;;;10.25;63.95;96037.78;5093878;28;20607;-92
2024/03/19 11:18:05;;;;;;;4.33;3.17;;;;;;;10.28;62.81;96035.31;5076458;28;20239;-85
2024/03/19 11:20:34;;;;;;;3.07;2.83;;;;;;;9.98;60.88;95982.72;5094017;28;20794;-85
2024/03/19 11:23:04;;;;;;;3.00;2.70;;;;;;;9.93;61.16;96009.41;5094724;28;20240;-86
2024/03/19 11:25:33;;;;;;;4.13;2.93;;;;;;;9.91;59.88;96023.00;5060409;28;20240;-91
2024/03/19 11:28:00;;;;;;;2.50;2.30;;;;;;;9.80;60.18;96011.00;5076828;28;20674;-88
2024/03/19 11:30:27;;;;;;;4.07;2.50;;;;;;;9.78;61.12;96021.09;5094076;28;20207;-89
2024/03/19 11:32:59;;;;;;;2.80;2.40;;;;;;;9.79;60.30;96042.06;5094201;28;20249;-87
2024/03/19 11:35:26;;;;;;;3.33;2.90;;;;;;;9.62;61.26;96033.09;5076116;28;20232;-84
2024/03/19 11:37:53;;;;;;;4.17;2.40;;;;;;;9.49;61.23;96046.06;5093569;28;20204;-84
2024/03/19 11:40:20;;;;;;;3.10;2.77;;;;;;;9.54;60.98;96040.66;5093476;28;20199;-81
2024/03/19 11:42:49;;;;;;;4.53;4.13;;;;;;;9.07;61.20;96029.22;5093381;28;20196;-81